createdAt,value
2018-08-12T00:00:33.475Z,48.60
2018-08-12T00:03:01.930Z,49.10
2018-08-12T00:05:30.416Z,49.20
2018-08-12T00:07:58.858Z,49.30
2018-08-12T00:10:27.378Z,49.20
2018-08-12T00:12:55.778Z,49.10
2018-08-12T00:15:24.228Z,49.20
2018-08-12T00:17:52.701Z,48.80
2018-08-12T00:20:22.398Z,48.60
2018-08-12T00:22:51.057Z,48.60
2018-08-12T00:25:22.105Z,48.90
2018-08-12T00:27:50.555Z,48.90
2018-08-12T00:30:19.569Z,48.90
2018-08-12T00:32:48.100Z,48.70
2018-08-12T00:35:17.615Z,49.20
2018-08-12T00:37:46.083Z,49.50
2018-08-12T00:40:15.656Z,49.60
2018-08-12T00:42:44.709Z,49.90
2018-08-12T00:45:15.856Z,50.00
2018-08-12T00:47:44.654Z,49.60
2018-08-12T00:50:13.985Z,49.40
2018-08-12T00:52:42.479Z,50.00
2018-08-12T00:55:13.325Z,49.30
2018-08-12T00:57:42.568Z,49.50
2018-08-12T01:00:18.677Z,50.00
2018-08-12T01:02:47.167Z,50.00
2018-08-12T01:05:17.076Z,49.70
2018-08-12T01:07:46.419Z,49.40
2018-08-12T01:10:15.459Z,49.70
2018-08-12T01:12:44.031Z,49.60
2018-08-12T01:15:18.020Z,50.00
2018-08-12T01:17:46.504Z,50.00
2018-08-12T01:20:18.825Z,50.00
2018-08-12T01:22:47.307Z,50.10
2018-08-12T01:25:15.872Z,50.00
2018-08-12T01:27:51.129Z,51.00
2018-08-12T01:30:20.814Z,51.00
2018-08-12T01:32:49.428Z,50.30
2018-08-12T01:35:18.300Z,50.30
2018-08-12T01:37:47.355Z,50.30
2018-08-12T01:40:16.513Z,50.90
2018-08-12T01:42:45.209Z,50.90
2018-08-12T01:45:16.119Z,50.90
2018-08-12T01:47:44.704Z,50.80
2018-08-12T01:50:14.992Z,50.90
2018-08-12T01:52:43.397Z,50.90
2018-08-12T01:55:11.840Z,51.00
2018-08-12T01:57:40.281Z,50.30
2018-08-12T02:00:21.499Z,50.90
2018-08-12T02:02:50.403Z,50.90
2018-08-12T02:05:18.950Z,50.90
2018-08-12T02:07:47.444Z,50.70
2018-08-12T02:10:15.911Z,50.80
2018-08-12T02:12:44.283Z,50.80
2018-08-12T02:15:12.772Z,51.10
2018-08-12T02:17:41.755Z,51.40
2018-08-12T02:20:10.957Z,50.80
2018-08-12T02:22:40.102Z,51.00
2018-08-12T02:25:09.174Z,51.40
2018-08-12T02:27:37.648Z,51.10
2018-08-12T02:30:08.512Z,51.40
2018-08-12T02:32:37.011Z,50.80
2018-08-12T02:35:05.986Z,51.20
2018-08-12T02:37:34.281Z,50.90
2018-08-12T02:40:02.663Z,51.60
2018-08-12T02:42:30.989Z,51.90
2018-08-12T02:44:59.370Z,52.10
2018-08-12T02:47:27.719Z,51.70
2018-08-12T02:49:56.111Z,51.60
2018-08-12T02:52:24.433Z,51.30
2018-08-12T02:54:52.870Z,51.20
2018-08-12T02:57:21.307Z,51.60
2018-08-12T02:59:49.640Z,52.00
2018-08-12T03:02:18.017Z,52.60
2018-08-12T03:04:46.490Z,52.10
2018-08-12T03:07:14.810Z,52.10
2018-08-12T03:09:43.171Z,52.30
2018-08-12T03:12:11.521Z,52.20
2018-08-12T03:14:39.883Z,52.20
2018-08-12T03:17:08.309Z,51.80
2018-08-12T03:19:36.714Z,51.80
2018-08-12T03:22:05.233Z,52.10
2018-08-12T03:24:33.588Z,52.40
2018-08-12T03:27:01.978Z,52.40
2018-08-12T03:29:30.383Z,52.90
2018-08-12T03:31:58.797Z,52.90
2018-08-12T03:34:27.102Z,52.80
2018-08-12T03:36:55.427Z,52.70
2018-08-12T03:39:23.795Z,52.70
2018-08-12T03:41:52.155Z,52.70
2018-08-12T03:44:20.477Z,52.60
2018-08-12T03:46:48.980Z,52.60
2018-08-12T03:49:17.296Z,52.60
2018-08-12T03:51:45.721Z,52.30
2018-08-12T03:54:14.121Z,52.90
2018-08-12T03:56:42.516Z,52.90
2018-08-12T03:59:10.873Z,53.50
2018-08-12T04:01:39.250Z,52.80
2018-08-12T04:04:07.689Z,52.80
2018-08-12T04:06:36.065Z,52.70
2018-08-12T04:09:07.784Z,53.10
2018-08-12T04:11:36.149Z,53.40
2018-08-12T04:14:04.825Z,53.10
2018-08-12T04:16:33.497Z,53.60
2018-08-12T04:19:02.344Z,53.60
2018-08-12T04:21:30.734Z,53.80
2018-08-12T04:23:59.201Z,53.90
2018-08-12T04:26:27.592Z,53.80
2018-08-12T04:28:55.981Z,53.60
2018-08-12T04:31:24.346Z,54.30
2018-08-12T04:33:52.839Z,54.50
2018-08-12T04:36:21.236Z,54.00
2018-08-12T04:38:49.571Z,54.10
2018-08-12T04:41:17.975Z,54.90
2018-08-12T04:43:46.338Z,53.80
2018-08-12T04:46:14.654Z,54.80
2018-08-12T04:48:43.007Z,53.60
2018-08-12T04:51:11.357Z,54.00
2018-08-12T04:53:39.749Z,53.60
2018-08-12T04:56:08.318Z,53.30
2018-08-12T04:58:36.650Z,53.40
2018-08-12T05:01:05.029Z,53.40
2018-08-12T05:03:33.394Z,53.10
2018-08-12T05:06:01.766Z,52.90
2018-08-12T05:08:36.801Z,53.00
2018-08-12T05:11:05.382Z,53.20
2018-08-12T05:13:33.897Z,53.50
2018-08-12T05:16:02.281Z,53.50
2018-08-12T05:18:30.682Z,53.50
2018-08-12T05:20:59.016Z,53.50
2018-08-12T05:23:27.383Z,53.70
2018-08-12T05:25:55.736Z,53.50
2018-08-12T05:28:24.158Z,53.60
2018-08-12T05:30:52.514Z,53.20
2018-08-12T05:33:20.898Z,52.50
2018-08-12T05:35:49.288Z,53.00
2018-08-12T05:38:17.649Z,53.20
2018-08-12T05:40:45.982Z,52.40
2018-08-12T05:43:14.416Z,51.90
2018-08-12T05:45:42.818Z,52.10
2018-08-12T05:48:11.241Z,51.80
2018-08-12T05:50:39.564Z,51.00
2018-08-12T05:53:07.950Z,51.50
2018-08-12T05:55:36.312Z,51.10
2018-08-12T05:58:04.883Z,51.20
2018-08-12T06:00:33.328Z,51.20
2018-08-12T06:03:01.946Z,50.60
2018-08-12T06:05:30.817Z,50.60
2018-08-12T06:07:59.220Z,51.30
2018-08-12T06:10:27.610Z,50.00
2018-08-12T06:12:55.980Z,51.30
2018-08-12T06:15:24.365Z,50.40
2018-08-12T06:17:52.815Z,51.60
2018-08-12T06:20:21.242Z,51.30
2018-08-12T06:22:49.635Z,50.30
2018-08-12T06:25:18.026Z,49.60
2018-08-12T06:27:46.394Z,49.20
2018-08-12T06:30:14.996Z,49.40
2018-08-12T06:32:43.365Z,50.20
2018-08-12T06:35:12.517Z,49.40
2018-08-12T06:37:40.893Z,48.80
2018-08-12T06:40:11.485Z,48.40
2018-08-12T06:42:41.655Z,49.10
2018-08-12T06:45:12.939Z,49.00
2018-08-12T06:47:42.207Z,48.10
2018-08-12T06:50:10.887Z,47.90
2018-08-12T06:52:40.540Z,48.00
2018-08-12T06:55:11.881Z,47.90
2018-08-12T06:57:41.491Z,47.90
2018-08-12T07:00:12.718Z,48.00
2018-08-12T07:02:41.162Z,47.70
2018-08-12T07:05:10.528Z,47.70
2018-08-12T07:07:39.090Z,48.40
2018-08-12T07:10:10.650Z,47.90
2018-08-12T07:12:39.325Z,48.20
2018-08-12T07:15:14.746Z,48.00
2018-08-12T07:17:44.295Z,48.40
2018-08-12T07:20:13.353Z,48.00
2018-08-12T07:22:41.987Z,48.10
2018-08-12T07:25:11.918Z,48.20
2018-08-12T07:27:41.230Z,48.40
2018-08-12T07:30:12.202Z,48.80
2018-08-12T07:32:40.766Z,47.90
2018-08-12T07:35:10.128Z,48.50
2018-08-12T07:37:39.192Z,47.90
2018-08-12T07:40:14.213Z,47.80
2018-08-12T07:42:42.673Z,47.30
2018-08-12T07:45:12.281Z,46.60
2018-08-12T07:47:41.392Z,46.80
2018-08-12T07:50:10.284Z,46.60
2018-08-12T07:52:39.637Z,46.20
2018-08-12T07:55:09.477Z,46.00
2018-08-12T07:57:37.986Z,45.60
2018-08-12T08:00:11.480Z,45.20
2018-08-12T08:02:39.937Z,44.70
2018-08-12T08:05:08.428Z,44.80
2018-08-12T08:07:37.525Z,44.80
2018-08-12T08:10:09.411Z,44.50
2018-08-12T08:12:38.632Z,44.40
2018-08-12T08:15:10.095Z,43.60
2018-08-12T08:17:39.118Z,42.30
2018-08-12T08:20:10.093Z,41.80
2018-08-12T08:22:38.681Z,42.10
2018-08-12T08:25:08.129Z,41.60
2018-08-12T08:27:36.817Z,41.70
2018-08-12T08:30:09.665Z,40.00
2018-08-12T08:32:38.503Z,38.50
2018-08-12T08:35:07.129Z,37.20
2018-08-12T08:37:35.799Z,36.60
2018-08-12T08:40:07.745Z,36.50
2018-08-12T08:42:36.188Z,36.70
2018-08-12T08:45:10.498Z,35.40
2018-08-12T08:47:38.959Z,35.50
2018-08-12T08:50:07.777Z,34.80
2018-08-12T08:52:43.907Z,35.20
2018-08-12T08:55:13.241Z,34.70
2018-08-12T08:57:41.825Z,35.10
2018-08-12T09:00:13.820Z,34.50
2018-08-12T09:02:44.613Z,34.90
2018-08-12T09:05:14.630Z,34.80
2018-08-12T09:07:43.635Z,34.30
2018-08-12T09:10:13.622Z,35.00
2018-08-12T09:12:42.769Z,34.70
2018-08-12T09:15:13.909Z,34.40
2018-08-12T09:17:43.298Z,34.80
2018-08-12T09:20:14.122Z,34.20
2018-08-12T09:22:42.721Z,34.10
2018-08-12T09:25:12.049Z,34.50
2018-08-12T09:27:40.540Z,34.90
2018-08-12T09:30:13.760Z,34.00
2018-08-12T09:32:42.745Z,33.20
2018-08-12T09:35:11.206Z,33.20
2018-08-12T09:37:39.646Z,32.80
2018-08-12T09:40:10.904Z,32.50
2018-08-12T09:42:39.780Z,32.30
2018-08-12T09:45:11.960Z,31.70
2018-08-12T09:47:40.516Z,32.20
2018-08-12T09:50:09.799Z,31.60
2018-08-12T09:52:38.809Z,32.50
2018-08-12T09:55:09.502Z,31.90
2018-08-12T09:57:38.000Z,31.90
2018-08-12T10:00:19.597Z,32.30
2018-08-12T10:02:48.637Z,30.40
2018-08-12T10:05:17.997Z,30.00
2018-08-12T10:07:46.561Z,30.30
2018-08-12T10:10:16.368Z,30.40
2018-08-12T10:12:44.996Z,30.10
2018-08-12T10:15:14.429Z,30.00
2018-08-12T10:17:45.265Z,29.50
2018-08-12T10:20:13.940Z,29.40
2018-08-12T10:22:42.513Z,29.30
2018-08-12T10:25:10.974Z,29.30
2018-08-12T10:27:39.495Z,29.30
2018-08-12T10:30:10.635Z,28.70
2018-08-12T10:32:39.444Z,28.30
2018-08-12T10:35:09.810Z,29.10
2018-08-12T10:37:38.344Z,29.60
2018-08-12T10:40:11.503Z,29.00
2018-08-12T10:42:40.991Z,29.30
2018-08-12T10:45:10.621Z,28.10
2018-08-12T10:47:39.142Z,28.00
2018-08-12T10:50:11.180Z,28.40
2018-08-12T10:52:40.642Z,28.70
2018-08-12T10:55:09.785Z,28.40
2018-08-12T10:57:38.334Z,28.10
2018-08-12T11:00:20.182Z,28.20
2018-08-12T11:02:48.610Z,28.30
2018-08-12T11:05:17.344Z,28.70
2018-08-12T11:07:48.441Z,28.70
2018-08-12T11:10:16.997Z,29.00
2018-08-12T11:12:45.459Z,28.50
2018-08-12T11:15:13.913Z,28.00
2018-08-12T11:17:42.426Z,27.50
2018-08-12T11:20:11.099Z,27.50
2018-08-12T11:22:39.490Z,27.10
2018-08-12T11:25:10.269Z,27.60
2018-08-12T11:27:38.718Z,27.40
2018-08-12T11:30:13.649Z,27.40
2018-08-12T11:32:42.197Z,27.40
2018-08-12T11:35:12.995Z,28.00
2018-08-12T11:37:42.115Z,27.80
2018-08-12T11:40:11.805Z,27.70
2018-08-12T11:42:40.354Z,27.30
2018-08-12T11:45:12.694Z,27.00
2018-08-12T11:47:42.038Z,26.40
2018-08-12T11:50:11.137Z,25.90
2018-08-12T11:52:40.550Z,26.00
2018-08-12T11:55:11.107Z,26.10
2018-08-12T11:57:39.940Z,25.70
2018-08-12T12:00:14.328Z,25.60
2018-08-12T12:02:43.579Z,25.20
2018-08-12T12:05:12.717Z,25.50
2018-08-12T12:07:41.958Z,23.90
2018-08-12T12:10:14.372Z,24.20
2018-08-12T12:12:44.057Z,24.30
2018-08-12T12:15:13.447Z,23.60
2018-08-12T12:17:42.462Z,22.60
2018-08-12T12:20:11.980Z,22.90
2018-08-12T12:22:41.382Z,22.70
2018-08-12T12:25:12.020Z,21.30
2018-08-12T12:27:40.397Z,21.40
2018-08-12T12:30:13.245Z,21.90
2018-08-12T12:32:42.116Z,22.10
2018-08-12T12:35:10.697Z,22.30
2018-08-12T12:37:39.570Z,22.30
2018-08-12T12:40:10.682Z,21.30
2018-08-12T12:42:39.113Z,20.10
2018-08-12T12:45:09.999Z,20.40
2018-08-12T12:47:39.069Z,20.70
2018-08-12T12:50:16.682Z,21.70
2018-08-12T12:52:46.078Z,21.60
2018-08-12T12:55:14.603Z,22.10
2018-08-12T12:57:43.078Z,21.00
2018-08-12T13:00:14.236Z,20.70
2018-08-12T13:02:42.676Z,20.70
2018-08-12T13:05:13.539Z,21.30
2018-08-12T13:07:43.553Z,21.00
2018-08-12T13:10:13.109Z,20.60
2018-08-12T13:12:42.044Z,20.30
2018-08-12T13:15:12.005Z,20.80
2018-08-12T13:17:40.589Z,20.40
2018-08-12T13:20:15.557Z,19.40
2018-08-12T13:22:45.403Z,19.70
2018-08-12T13:25:16.254Z,19.40
2018-08-12T13:27:45.098Z,19.40
2018-08-12T13:30:14.549Z,18.90
2018-08-12T13:32:44.137Z,19.40
2018-08-12T13:35:12.645Z,19.40
2018-08-12T13:37:41.390Z,18.80
2018-08-12T13:40:12.234Z,18.80
2018-08-12T13:42:41.548Z,18.70
2018-08-12T13:45:11.031Z,19.30
2018-08-12T13:47:40.728Z,19.00
2018-08-12T13:50:12.710Z,20.10
2018-08-12T13:52:41.270Z,19.30
2018-08-12T13:55:09.877Z,18.80
2018-08-12T13:57:38.356Z,19.00
2018-08-12T14:00:11.942Z,19.30
2018-08-12T14:02:41.012Z,19.10
2018-08-12T14:05:10.266Z,18.70
2018-08-12T14:07:38.853Z,18.30
2018-08-12T14:10:08.637Z,18.20
2018-08-12T14:12:38.792Z,18.10
2018-08-12T14:15:11.431Z,17.80
2018-08-12T14:17:41.055Z,17.50
2018-08-12T14:20:11.385Z,17.10
2018-08-12T14:22:40.192Z,17.80
2018-08-12T14:25:09.046Z,18.10
2018-08-12T14:27:37.844Z,17.50
2018-08-12T14:30:10.003Z,17.00
2018-08-12T14:32:38.504Z,17.60
2018-08-12T14:35:07.489Z,17.50
2018-08-12T14:37:36.631Z,17.90
2018-08-12T14:40:06.599Z,17.80
2018-08-12T14:42:35.112Z,18.10
2018-08-12T14:45:04.366Z,18.60
2018-08-12T14:47:32.932Z,17.70
2018-08-12T14:50:01.447Z,18.00
2018-08-12T14:52:29.936Z,17.10
2018-08-12T14:54:58.370Z,17.10
2018-08-12T14:57:26.769Z,17.80
2018-08-12T14:59:55.217Z,18.40
2018-08-12T15:02:23.654Z,18.10
2018-08-12T15:04:52.111Z,18.60
2018-08-12T15:07:20.610Z,18.40
2018-08-12T15:09:49.042Z,17.50
2018-08-12T15:12:17.556Z,17.10
2018-08-12T15:14:46.690Z,17.50
2018-08-12T15:17:15.123Z,17.00
2018-08-12T15:19:43.554Z,17.50
2018-08-12T15:22:12.060Z,16.30
2018-08-12T15:24:40.539Z,16.00
2018-08-12T15:27:09.124Z,15.50
2018-08-12T15:29:37.521Z,15.40
2018-08-12T15:32:05.973Z,16.20
2018-08-12T15:34:34.433Z,15.70
2018-08-12T15:37:02.899Z,15.70
2018-08-12T15:39:31.324Z,15.30
2018-08-12T15:41:59.824Z,15.40
2018-08-12T15:44:28.268Z,16.70
2018-08-12T15:46:56.717Z,17.00
2018-08-12T15:49:25.158Z,17.00
2018-08-12T15:51:53.599Z,17.00
2018-08-12T15:54:22.132Z,17.10
2018-08-12T15:56:50.633Z,17.60
2018-08-12T15:59:19.407Z,17.20
2018-08-12T16:01:47.877Z,17.30
2018-08-12T16:04:16.314Z,17.50
2018-08-12T16:06:44.830Z,16.90
2018-08-12T16:09:13.294Z,17.10
2018-08-12T16:11:41.780Z,17.20
2018-08-12T16:14:10.265Z,17.40
2018-08-12T16:16:38.757Z,17.60
2018-08-12T16:19:07.319Z,17.90
2018-08-12T16:21:35.812Z,18.10
2018-08-12T16:24:04.323Z,18.30
2018-08-12T16:26:32.654Z,18.60
2018-08-12T16:29:01.164Z,19.00
2018-08-12T16:31:29.560Z,18.70
2018-08-12T16:33:58.014Z,19.00
2018-08-12T16:36:26.450Z,19.40
2018-08-12T16:38:54.943Z,19.30
2018-08-12T16:41:23.473Z,19.30
2018-08-12T16:43:51.921Z,19.90
2018-08-12T16:46:20.313Z,20.10
2018-08-12T16:48:48.837Z,20.50
2018-08-12T16:51:18.532Z,19.60
2018-08-12T16:53:46.977Z,20.20
2018-08-12T16:56:15.485Z,20.40
2018-08-12T16:58:43.878Z,21.40
2018-08-12T17:01:12.365Z,21.50
2018-08-12T17:03:40.898Z,21.70
2018-08-12T17:06:09.451Z,20.80
2018-08-12T17:08:37.913Z,20.50
2018-08-12T17:11:06.518Z,20.50
2018-08-12T17:13:35.011Z,20.40
2018-08-12T17:16:03.591Z,20.30
2018-08-12T17:18:32.277Z,19.90
2018-08-12T17:21:00.700Z,20.30
2018-08-12T17:23:29.143Z,19.10
2018-08-12T17:25:57.670Z,20.10
2018-08-12T17:28:26.065Z,20.10
2018-08-12T17:30:54.565Z,19.50
2018-08-12T17:33:23.191Z,20.10
2018-08-12T17:35:51.799Z,20.10
2018-08-12T17:38:20.272Z,20.10
2018-08-12T17:40:48.763Z,20.30
2018-08-12T17:43:17.298Z,20.50
2018-08-12T17:45:45.810Z,20.50
2018-08-12T17:48:14.434Z,20.80
2018-08-12T17:50:42.899Z,20.90
2018-08-12T17:53:11.367Z,22.20
2018-08-12T17:55:39.933Z,22.40
2018-08-12T17:58:09.143Z,21.80
2018-08-12T18:00:37.703Z,22.50
2018-08-12T18:03:06.335Z,22.80
2018-08-12T18:05:34.968Z,22.40
2018-08-12T18:08:03.561Z,22.70
2018-08-12T18:10:32.156Z,22.80
2018-08-12T18:13:00.610Z,23.00
2018-08-12T18:15:29.112Z,23.60
2018-08-12T18:17:57.612Z,23.50
2018-08-12T18:20:26.191Z,23.50
2018-08-12T18:22:54.650Z,23.70
2018-08-12T18:25:23.116Z,23.80
2018-08-12T18:27:52.514Z,24.20
2018-08-12T18:30:20.981Z,24.30
2018-08-12T18:32:49.466Z,24.40
2018-08-12T18:35:17.977Z,24.60
2018-08-12T18:37:46.472Z,25.30
2018-08-12T18:40:14.961Z,25.40
2018-08-12T18:42:43.481Z,25.90
2018-08-12T18:45:12.100Z,25.70
2018-08-12T18:47:40.597Z,26.20
2018-08-12T18:50:10.457Z,25.90
2018-08-12T18:52:39.415Z,26.10
2018-08-12T18:55:10.148Z,26.60
2018-08-12T18:57:38.624Z,26.20
2018-08-12T19:00:10.114Z,26.10
2018-08-12T19:02:38.700Z,26.80
2018-08-12T19:05:08.590Z,26.80
2018-08-12T19:07:37.316Z,26.80
2018-08-12T19:10:06.860Z,27.30
2018-08-12T19:12:35.526Z,27.40
2018-08-12T19:15:06.179Z,28.00
2018-08-12T19:17:34.677Z,28.10
2018-08-12T19:20:03.443Z,28.40
2018-08-12T19:22:31.905Z,28.50
2018-08-12T19:25:00.323Z,29.40
2018-08-12T19:27:28.748Z,29.30
2018-08-12T19:29:57.225Z,29.60
2018-08-12T19:32:25.742Z,29.70
2018-08-12T19:34:54.142Z,30.10
2018-08-12T19:37:22.582Z,30.10
2018-08-12T19:39:51.012Z,30.10
2018-08-12T19:42:19.487Z,30.50
2018-08-12T19:44:48.955Z,30.80
2018-08-12T19:47:17.591Z,31.40
2018-08-12T19:49:46.878Z,31.60
2018-08-12T19:52:16.075Z,32.10
2018-08-12T19:54:44.663Z,32.80
2018-08-12T19:57:13.536Z,32.70
2018-08-12T19:59:42.194Z,33.10
2018-08-12T20:02:10.923Z,32.80
2018-08-12T20:04:39.471Z,33.00
2018-08-12T20:07:08.069Z,33.70
2018-08-12T20:09:36.675Z,33.80
2018-08-12T20:12:05.443Z,34.40
2018-08-12T20:14:34.067Z,34.90
2018-08-12T20:17:03.255Z,34.40
2018-08-12T20:19:32.023Z,34.90
2018-08-12T20:22:00.590Z,34.60
2018-08-12T20:24:29.161Z,35.60
2018-08-12T20:26:57.681Z,35.10
2018-08-12T20:29:26.081Z,35.30
2018-08-12T20:31:54.510Z,35.50
2018-08-12T20:34:23.177Z,35.60
2018-08-12T20:36:51.709Z,36.00
2018-08-12T20:39:20.135Z,35.70
2018-08-12T20:41:48.638Z,35.90
2018-08-12T20:44:17.129Z,36.60
2018-08-12T20:46:45.871Z,36.50
2018-08-12T20:49:14.399Z,36.80
2018-08-12T20:51:42.953Z,37.10
2018-08-12T20:54:12.238Z,37.10
2018-08-12T20:56:40.754Z,37.00
2018-08-12T20:59:10.586Z,37.60
2018-08-12T21:01:40.081Z,37.80
2018-08-12T21:04:08.714Z,37.70
2018-08-12T21:06:38.300Z,37.80
2018-08-12T21:09:09.733Z,37.80
2018-08-12T21:11:39.312Z,37.80
2018-08-12T21:14:07.989Z,38.40
2018-08-12T21:16:37.388Z,38.30
2018-08-12T21:19:06.514Z,38.40
2018-08-12T21:21:36.128Z,38.70
2018-08-12T21:24:04.749Z,38.50
2018-08-12T21:26:33.221Z,38.50
2018-08-12T21:29:01.844Z,39.30
2018-08-12T21:31:30.350Z,39.30
2018-08-12T21:33:58.963Z,39.50
2018-08-12T21:36:27.456Z,39.60
2018-08-12T21:38:55.877Z,39.90
2018-08-12T21:41:24.284Z,40.40
2018-08-12T21:43:52.725Z,40.60
2018-08-12T21:46:21.143Z,41.10
2018-08-12T21:48:49.522Z,40.60
2018-08-12T21:51:18.018Z,41.00
2018-08-12T21:53:46.589Z,41.20
2018-08-12T21:56:15.104Z,41.40
2018-08-12T21:58:43.563Z,41.30
2018-08-12T22:01:12.190Z,41.70
2018-08-12T22:03:40.598Z,41.40
2018-08-12T22:06:09.017Z,41.50
2018-08-12T22:08:37.462Z,41.40
2018-08-12T22:11:05.934Z,41.60
2018-08-12T22:13:34.334Z,41.80
2018-08-12T22:16:02.837Z,41.90
2018-08-12T22:18:31.509Z,42.20
2018-08-12T22:21:02.812Z,42.50
2018-08-12T22:23:31.137Z,42.80
2018-08-12T22:25:59.953Z,43.20
2018-08-12T22:28:28.369Z,43.30
2018-08-12T22:30:56.956Z,43.20
2018-08-12T22:33:25.345Z,43.10
2018-08-12T22:35:53.793Z,43.20
2018-08-12T22:38:22.205Z,43.40
2018-08-12T22:40:50.561Z,43.30
2018-08-12T22:43:18.920Z,43.50
2018-08-12T22:45:47.305Z,43.40
2018-08-12T22:48:15.706Z,43.80
2018-08-12T22:50:46.958Z,44.30
2018-08-12T22:53:15.716Z,43.90
2018-08-12T22:55:44.080Z,44.00
2018-08-12T22:58:12.413Z,44.30
2018-08-12T23:00:42.838Z,44.40
2018-08-12T23:03:11.598Z,44.10
2018-08-12T23:05:40.143Z,44.20
2018-08-12T23:08:10.343Z,44.00
2018-08-12T23:10:39.766Z,44.10
2018-08-12T23:13:08.301Z,44.20
2018-08-12T23:16:24.808Z,44.30
2018-08-12T23:18:53.343Z,44.50
2018-08-12T23:21:22.166Z,44.70
2018-08-12T23:23:51.642Z,45.10
2018-08-12T23:26:22.129Z,45.20
2018-08-12T23:28:50.557Z,45.20
2018-08-12T23:31:18.972Z,44.80
2018-08-12T23:33:47.321Z,45.00
2018-08-12T23:36:15.781Z,45.30
2018-08-12T23:38:44.193Z,45.40
2018-08-12T23:41:12.913Z,45.30
2018-08-12T23:43:41.236Z,45.40
2018-08-12T23:46:10.461Z,45.40
2018-08-12T23:48:39.016Z,44.90
2018-08-12T23:51:07.849Z,45.40
2018-08-12T23:53:36.274Z,45.00
2018-08-12T23:56:05.773Z,44.80
2018-08-12T23:58:34.174Z,44.90
